Malabrigo, Argentina
Current Conditions -  °F | °C
As of 4:00 AM on Wednesday 26 Nov 2014 (Local Time) from SARE Reporting Station
Clear Clear  
Wind Chill: 72°   Ceiling: Unl
Heat Index: 72°   Visibility: 6mi
Dew Point: 70°   Wind: 7mph
Humidity: 94%   Direction: 200°SSW
Pressure: 29.77"   Gusts: NA
Location:  29.35°S, 59.98°W
Report Text: SARE 260700Z 20006KT CAVOK 22/21 Q1008
Loading
Personal Weather Stations






























Interactive Weather Map New forecast layout! Learn more

10-Day Weather Forecast

Advertisements
Track Severe Weather on mobile